Time,TemperatureF,DewpointF,PressureIn,WindDirection,WindDirectionDegrees,WindSpeedMPH,WindSpeedGustMPH,Humidity,HourlyPrecipIn,Conditions,Clouds,dailyrainin,SoftwareType,DateUTC
2013-07-28 00:02:00,69.2,66.5,29.93,SW,217,0.0,0.0,91,0.00,,,0.00,Wunderground v.1.15,2013-07-28 04:02:00,
2013-07-28 00:03:00,69.2,66.5,29.92,SW,215,0.0,0.0,91,0.00,,,0.00,Wunderground v.1.15,2013-07-28 04:03:00,
2013-07-28 00:09:00,69.2,66.1,29.93,South,169,0.0,0.0,90,0.00,,,0.00,Wunderground v.1.15,2013-07-28 04:09:00,
2013-07-28 00:12:00,69.3,66.2,29.92,South,169,0.0,0.0,90,0.00,,,0.00,Wunderground v.1.15,2013-07-28 04:12:00,
2013-07-28 00:18:00,69.4,66.3,29.92,SSW,208,0.0,0.0,90,0.00,,,0.00,Wunderground v.1.15,2013-07-28 04:18:00,
2013-07-28 00:22:00,69.4,66.3,29.92,SSW,208,0.0,0.0,90,0.00,,,0.00,Wunderground v.1.15,2013-07-28 04:22:00,
2013-07-28 00:28:00,69.4,66.3,29.92,SSW,208,0.0,0.0,90,0.00,,,0.00,Wunderground v.1.15,2013-07-28 04:28:00,
2013-07-28 00:34:00,69.4,66.3,29.92,SSW,208,0.0,0.0,90,0.00,,,0.00,Wunderground v.1.15,2013-07-28 04:34:00,
2013-07-28 00:39:00,69.3,66.6,29.92,SSW,208,0.0,0.0,91,0.00,,,0.00,Wunderground v.1.15,2013-07-28 04:39:00,
2013-07-28 00:46:00,69.3,66.9,29.92,SSW,208,0.0,0.0,92,0.00,,,0.00,Wunderground v.1.15,2013-07-28 04:46:00,
2013-07-28 00:52:00,69.3,66.6,29.92,SSW,207,0.0,0.0,91,0.00,,,0.00,Wunderground v.1.15,2013-07-28 04:52:00,
2013-07-28 00:58:00,69.3,66.6,29.92,SSW,207,0.0,0.0,91,0.00,,,0.00,Wunderground v.1.15,2013-07-28 04:58:00,
2013-07-28 01:03:00,69.3,66.6,29.91,SSE,154,0.0,1.0,91,0.00,,,0.00,Wunderground v.1.15,2013-07-28 05:03:00,
2013-07-28 01:10:00,69.2,66.5,29.92,SSE,155,0.0,1.0,91,0.00,,,0.00,Wunderground v.1.15,2013-07-28 05:10:00,
2013-07-28 01:16:00,69.2,66.5,29.92,SSE,155,0.0,1.0,91,0.00,,,0.00,Wunderground v.1.15,2013-07-28 05:16:00,
2013-07-28 01:22:00,69.2,66.5,29.92,SSE,166,0.0,1.0,91,0.00,,,0.00,Wunderground v.1.15,2013-07-28 05:22:00,
2013-07-28 01:27:00,68.8,66.4,29.91,SW,214,0.0,2.0,92,0.00,,,0.00,Wunderground v.1.15,2013-07-28 05:27:00,
2013-07-28 01:34:00,68.8,66.4,29.92,SSW,208,1.0,2.0,92,0.00,,,0.00,Wunderground v.1.15,2013-07-28 05:34:00,
2013-07-28 01:40:00,69.3,66.2,29.92,South,190,1.0,1.0,90,0.00,,,0.00,Wunderground v.1.15,2013-07-28 05:40:00,
2013-07-28 01:45:00,69.4,66.3,29.91,South,190,0.0,1.0,90,0.00,,,0.00,Wunderground v.1.15,2013-07-28 05:45:00,
2013-07-28 01:52:00,69.1,66.4,29.91,SSW,211,0.0,1.0,91,0.00,,,0.00,Wunderground v.1.15,2013-07-28 05:52:00,
2013-07-28 01:58:00,69.2,66.5,29.91,SSW,208,0.0,1.0,91,0.00,,,0.00,Wunderground v.1.15,2013-07-28 05:58:00,
2013-07-28 02:04:00,69.1,66.4,29.91,SSE,152,0.0,1.0,91,0.00,,,0.00,Wunderground v.1.15,2013-07-28 06:04:00,
2013-07-28 02:10:00,69.0,66.3,29.91,SSE,152,0.0,1.0,91,0.00,,,0.00,Wunderground v.1.15,2013-07-28 06:10:00,
2013-07-28 02:16:00,68.8,66.1,29.91,SSE,152,0.0,1.0,91,0.00,,,0.00,Wunderground v.1.15,2013-07-28 06:16:00,
2013-07-28 02:22:00,68.9,66.2,29.91,SSE,152,0.0,1.0,91,0.00,,,0.00,Wunderground v.1.15,2013-07-28 06:22:00,
2013-07-28 02:28:00,68.9,66.2,29.91,SSE,152,0.0,1.0,91,0.00,,,0.00,Wunderground v.1.15,2013-07-28 06:28:00,
2013-07-28 02:34:00,69.1,66.4,29.91,South,181,0.0,1.0,91,0.00,,,0.00,Wunderground v.1.15,2013-07-28 06:34:00,
2013-07-28 02:39:00,69.3,66.9,29.91,South,181,0.0,1.0,92,0.00,,,0.00,Wunderground v.1.15,2013-07-28 06:39:00,
2013-07-28 02:46:00,69.1,66.7,29.91,South,181,0.0,1.0,92,0.00,,,0.00,Wunderground v.1.15,2013-07-28 06:46:00,
2013-07-28 02:52:00,69.0,66.6,29.91,South,181,0.0,1.0,92,0.00,,,0.00,Wunderground v.1.15,2013-07-28 06:52:00,
2013-07-28 02:58:00,69.2,66.8,29.91,SSE,148,0.0,1.0,92,0.00,,,0.00,Wunderground v.1.15,2013-07-28 06:58:00,
2013-07-28 03:04:00,69.3,66.9,29.91,SE,136,1.0,2.0,92,0.00,,,0.00,Wunderground v.1.15,2013-07-28 07:04:00,
2013-07-28 03:09:00,69.2,66.8,29.91,SE,136,0.0,1.0,92,0.00,,,0.00,Wunderground v.1.15,2013-07-28 07:09:00,
2013-07-28 03:16:00,69.2,67.1,29.91,SSW,212,0.0,1.0,93,0.00,,,0.00,Wunderground v.1.15,2013-07-28 07:16:00,
2013-07-28 03:21:00,69.1,67.0,29.91,SSW,198,1.0,2.0,93,0.00,,,0.00,Wunderground v.1.15,2013-07-28 07:21:00,
2013-07-28 03:28:00,69.5,67.4,29.91,SSW,195,2.0,2.0,93,0.00,,,0.00,Wunderground v.1.15,2013-07-28 07:28:00,
2013-07-28 03:34:00,69.8,67.4,29.92,SSW,207,2.0,3.0,92,0.00,,,0.00,Wunderground v.1.15,2013-07-28 07:34:00,
2013-07-28 03:40:00,70.0,67.6,29.92,SSW,209,1.0,1.0,92,0.00,,,0.00,Wunderground v.1.15,2013-07-28 07:40:00,
2013-07-28 03:45:00,70.0,67.6,29.92,SSW,210,1.0,2.0,92,0.00,,,0.00,Wunderground v.1.15,2013-07-28 07:45:00,
2013-07-28 03:51:00,69.9,67.2,29.92,SSW,194,1.0,1.0,91,0.00,,,0.00,Wunderground v.1.15,2013-07-28 07:51:00,
2013-07-28 03:58:00,69.9,67.2,29.91,SSW,205,1.0,2.0,91,0.00,,,0.00,Wunderground v.1.15,2013-07-28 07:58:00,
2013-07-28 04:03:00,69.7,67.0,29.91,SSW,207,1.0,1.0,91,0.00,,,0.00,Wunderground v.1.15,2013-07-28 08:03:00,
2013-07-28 04:10:00,69.4,66.7,29.92,SSW,208,0.0,1.0,91,0.00,,,0.00,Wunderground v.1.15,2013-07-28 08:10:00,
2013-07-28 04:16:00,69.0,66.6,29.92,SSW,208,0.0,1.0,92,0.00,,,0.00,Wunderground v.1.15,2013-07-28 08:16:00,
2013-07-28 04:22:00,69.0,66.9,29.92,SSW,208,0.0,1.0,93,0.00,,,0.00,Wunderground v.1.15,2013-07-28 08:22:00,
2013-07-28 04:28:00,68.8,66.7,29.92,SSW,208,0.0,1.0,93,0.00,,,0.00,Wunderground v.1.15,2013-07-28 08:28:00,
2013-07-28 04:34:00,68.7,66.9,29.91,SSW,208,0.0,1.0,94,0.00,,,0.00,Wunderground v.1.15,2013-07-28 08:34:00,
2013-07-28 04:40:00,68.4,66.6,29.92,SSW,193,0.0,2.0,94,0.00,,,0.00,Wunderground v.1.15,2013-07-28 08:40:00,
2013-07-28 04:46:00,68.1,66.0,29.92,South,177,1.0,3.0,93,0.00,,,0.00,Wunderground v.1.15,2013-07-28 08:46:00,
2013-07-28 04:52:00,68.1,66.0,29.92,SSE,167,1.0,1.0,93,0.00,,,0.00,Wunderground v.1.15,2013-07-28 08:52:00,
2013-07-28 04:58:00,67.8,66.0,29.92,South,177,0.0,1.0,94,0.00,,,0.00,Wunderground v.1.15,2013-07-28 08:58:00,
2013-07-28 05:04:00,67.6,65.8,29.92,SSW,198,1.0,4.0,94,0.00,,,0.00,Wunderground v.1.15,2013-07-28 09:04:00,
2013-07-28 05:10:00,67.6,65.8,29.92,SSW,194,3.0,3.0,94,0.00,,,0.00,Wunderground v.1.15,2013-07-28 09:10:00,
2013-07-28 05:15:00,67.5,65.7,29.93,South,191,3.0,3.0,94,0.00,,,0.00,Wunderground v.1.15,2013-07-28 09:15:00,
2013-07-28 05:22:00,67.7,65.3,29.93,SSW,203,3.0,4.0,92,0.00,,,0.00,Wunderground v.1.15,2013-07-28 09:22:00,
2013-07-28 05:28:00,67.9,65.2,29.93,SSW,197,3.0,4.0,91,0.00,,,0.00,Wunderground v.1.15,2013-07-28 09:28:00,
2013-07-28 05:34:00,67.7,65.0,29.93,SSW,200,4.0,4.0,91,0.00,,,0.00,Wunderground v.1.15,2013-07-28 09:34:00,
2013-07-28 05:39:00,68.2,64.5,29.93,South,191,3.0,3.0,88,0.00,,,0.00,Wunderground v.1.15,2013-07-28 09:39:00,
2013-07-28 05:45:00,68.5,64.1,29.93,SSW,198,3.0,6.0,86,0.00,,,0.00,Wunderground v.1.15,2013-07-28 09:45:00,
2013-07-28 05:52:00,68.6,64.2,29.94,SSW,203,2.0,3.0,86,0.00,,,0.00,Wunderground v.1.15,2013-07-28 09:52:00,
2013-07-28 06:00:00,68.1,64.4,29.94,South,186,2.0,2.0,88,0.00,,,0.00,Wunderground v.1.15,2013-07-28 10:00:00,
2013-07-28 06:05:00,67.9,64.9,29.94,South,187,2.0,2.0,90,0.00,,,0.00,Wunderground v.1.15,2013-07-28 10:05:00,
2013-07-28 06:12:00,67.3,64.6,29.94,South,174,1.0,1.0,91,0.00,,,0.00,Wunderground v.1.15,2013-07-28 10:12:00,
2013-07-28 06:18:00,67.1,64.7,29.94,SSW,194,1.0,3.0,92,0.00,,,0.00,Wunderground v.1.15,2013-07-28 10:18:00,
2013-07-28 06:24:00,66.9,64.5,29.94,SSW,195,3.0,4.0,92,0.00,,,0.00,Wunderground v.1.15,2013-07-28 10:24:00,
2013-07-28 06:30:00,67.0,64.6,29.95,South,184,3.0,3.0,92,0.00,,,0.00,Wunderground v.1.15,2013-07-28 10:30:00,
2013-07-28 06:36:00,67.0,64.6,29.95,SSW,198,2.0,3.0,92,0.00,,,0.00,Wunderground v.1.15,2013-07-28 10:36:00,
2013-07-28 06:42:00,66.9,64.2,29.95,SSW,204,3.0,4.0,91,0.00,,,0.00,Wunderground v.1.15,2013-07-28 10:42:00,
2013-07-28 06:48:00,67.1,64.1,29.95,SSW,203,4.0,4.0,90,0.00,,,0.00,Wunderground v.1.15,2013-07-28 10:48:00,
2013-07-28 06:53:00,67.1,63.7,29.96,SSW,197,3.0,4.0,89,0.00,,,0.00,Wunderground v.1.15,2013-07-28 10:53:00,
2013-07-28 06:59:00,67.0,63.6,29.96,SSW,198,2.0,3.0,89,0.00,,,0.00,Wunderground v.1.15,2013-07-28 10:59:00,
2013-07-28 07:06:00,67.5,63.8,29.96,NW,322,3.0,7.0,88,0.00,,,0.00,Wunderground v.1.15,2013-07-28 11:06:00,
2013-07-28 07:12:00,68.0,64.3,29.97,SW,231,4.0,4.0,88,0.00,,,0.00,Wunderground v.1.15,2013-07-28 11:12:00,
2013-07-28 07:18:00,68.2,64.2,29.96,WNW,294,2.0,4.0,87,0.00,,,0.00,Wunderground v.1.15,2013-07-28 11:18:00,
2013-07-28 07:24:00,68.3,64.3,29.97,WNW,300,1.0,3.0,87,0.00,,,0.00,Wunderground v.1.15,2013-07-28 11:24:00,
2013-07-28 07:30:00,68.4,64.4,29.97,WSW,249,0.0,1.0,87,0.00,,,0.00,Wunderground v.1.15,2013-07-28 11:30:00,
2013-07-28 07:35:00,68.8,64.4,29.97,WSW,249,0.0,1.0,86,0.00,,,0.00,Wunderground v.1.15,2013-07-28 11:35:00,
2013-07-28 07:42:00,69.3,64.6,29.97,WSW,249,0.0,1.0,85,0.00,,,0.00,Wunderground v.1.15,2013-07-28 11:42:00,
2013-07-28 07:48:00,69.9,65.2,29.98,WSW,249,0.0,1.0,85,0.00,,,0.00,Wunderground v.1.15,2013-07-28 11:48:00,
2013-07-28 07:53:00,69.6,65.2,29.98,SSE,153,0.0,1.0,86,0.00,,,0.00,Wunderground v.1.15,2013-07-28 11:53:00,
2013-07-28 08:00:00,69.1,65.1,29.98,SSE,162,0.0,1.0,87,0.00,,,0.00,Wunderground v.1.15,2013-07-28 12:00:00,
2013-07-28 08:06:00,68.7,64.3,29.99,SSE,160,0.0,1.0,86,0.00,,,0.00,Wunderground v.1.15,2013-07-28 12:06:00,
2013-07-28 08:12:00,68.7,64.7,29.99,SSE,163,0.0,1.0,87,0.00,,,0.00,Wunderground v.1.15,2013-07-28 12:12:00,
2013-07-28 08:18:00,68.8,64.4,29.99,SSE,163,0.0,1.0,86,0.00,,,0.00,Wunderground v.1.15,2013-07-28 12:18:00,
2013-07-28 08:23:00,68.9,64.9,29.99,SSE,163,0.0,1.0,87,0.00,,,0.00,Wunderground v.1.15,2013-07-28 12:23:00,
2013-07-28 08:30:00,69.0,65.3,29.99,South,191,0.0,1.0,88,0.00,,,0.00,Wunderground v.1.15,2013-07-28 12:30:00,
2013-07-28 08:35:00,69.0,65.3,29.99,South,191,0.0,1.0,88,0.00,,,0.00,Wunderground v.1.15,2013-07-28 12:35:00,
2013-07-28 08:42:00,69.3,65.3,29.99,South,179,0.0,1.0,87,0.00,,,0.00,Wunderground v.1.15,2013-07-28 12:42:00,
2013-07-28 08:48:00,69.6,64.9,29.99,SSW,201,0.0,1.0,85,0.00,,,0.00,Wunderground v.1.15,2013-07-28 12:48:00,
2013-07-28 08:54:00,69.9,65.2,30.00,SSW,202,0.0,1.0,85,0.00,,,0.00,Wunderground v.1.15,2013-07-28 12:54:00,
2013-07-28 09:00:00,70.2,64.8,29.99,SSW,201,0.0,1.0,83,0.00,,,0.00,Wunderground v.1.15,2013-07-28 13:00:00,
2013-07-28 09:06:00,70.7,65.3,30.00,SW,215,0.0,2.0,83,0.00,,,0.00,Wunderground v.1.15,2013-07-28 13:06:00,
2013-07-28 09:12:00,70.5,64.0,29.99,SW,226,2.0,3.0,80,0.00,,,0.00,Wunderground v.1.15,2013-07-28 13:12:00,
2013-07-28 09:17:00,70.8,64.0,29.99,WSW,252,3.0,6.0,79,0.00,,,0.00,Wunderground v.1.15,2013-07-28 13:17:00,
2013-07-28 09:23:00,71.4,64.9,29.99,SSW,197,2.0,3.0,80,0.00,,,0.00,Wunderground v.1.15,2013-07-28 13:23:00,
2013-07-28 09:29:00,71.8,65.3,29.99,SW,214,0.0,1.0,80,0.00,,,0.00,Wunderground v.1.15,2013-07-28 13:29:00,
2013-07-28 09:35:00,72.4,65.2,29.99,WSW,246,0.0,1.0,78,0.00,,,0.00,Wunderground v.1.15,2013-07-28 13:35:00,
2013-07-28 09:42:00,72.4,65.2,29.99,WNW,284,0.0,2.0,78,0.00,,,0.00,Wunderground v.1.15,2013-07-28 13:42:00,
2013-07-28 09:48:00,72.5,65.2,29.99,SSW,205,1.0,3.0,78,0.00,,,0.00,Wunderground v.1.15,2013-07-28 13:48:00,
2013-07-28 09:54:00,72.2,65.3,29.99,SW,234,3.0,5.0,79,0.00,,,0.00,Wunderground v.1.15,2013-07-28 13:54:00,
2013-07-28 09:59:00,72.1,64.5,29.99,SSW,208,5.0,5.0,77,0.00,,,0.00,Wunderground v.1.15,2013-07-28 13:59:00,
2013-07-28 10:06:00,72.5,64.9,29.99,SW,217,3.0,5.0,77,0.00,,,0.00,Wunderground v.1.15,2013-07-28 14:06:00,
2013-07-28 10:11:00,72.8,65.5,29.99,SW,232,2.0,3.0,78,0.00,,,0.00,Wunderground v.1.15,2013-07-28 14:11:00,
2013-07-28 10:17:00,73.7,65.7,29.99,WSW,244,2.0,3.0,76,0.00,,,0.00,Wunderground v.1.15,2013-07-28 14:17:00,
2013-07-28 10:24:00,74.8,66.7,29.99,SSW,198,1.0,2.0,76,0.00,,,0.00,Wunderground v.1.15,2013-07-28 14:24:00,
2013-07-28 10:30:00,74.3,65.9,29.99,SSW,200,1.0,3.0,75,0.00,,,0.00,Wunderground v.1.15,2013-07-28 14:30:00,
2013-07-28 10:35:00,73.9,65.5,29.99,SW,215,3.0,4.0,75,0.00,,,0.00,Wunderground v.1.15,2013-07-28 14:35:00,
2013-07-28 10:42:00,74.4,65.6,29.99,SSW,211,2.0,3.0,74,0.00,,,0.00,Wunderground v.1.15,2013-07-28 14:42:00,
2013-07-28 10:48:00,74.3,65.5,30.00,South,181,1.0,3.0,74,0.00,,,0.00,Wunderground v.1.15,2013-07-28 14:48:00,
2013-07-28 10:53:00,74.7,66.2,30.00,SSE,150,1.0,1.0,75,0.00,,,0.00,Wunderground v.1.15,2013-07-28 14:53:00,
2013-07-28 11:00:00,74.7,66.2,30.00,NNE,24,2.0,2.0,75,0.00,,,0.00,Wunderground v.1.15,2013-07-28 15:00:00,
2013-07-28 11:05:00,74.7,66.6,30.00,ENE,73,2.0,2.0,76,0.00,,,0.00,Wunderground v.1.15,2013-07-28 15:05:00,
2013-07-28 11:12:00,74.7,66.6,30.00,NE,43,2.0,2.0,76,0.00,,,0.00,Wunderground v.1.15,2013-07-28 15:12:00,
2013-07-28 11:17:00,74.6,66.5,30.00,NE,38,2.0,3.0,76,0.00,,,0.00,Wunderground v.1.15,2013-07-28 15:17:00,
2013-07-28 11:24:00,75.1,66.6,30.00,SSW,195,2.0,4.0,75,0.00,,,0.00,Wunderground v.1.15,2013-07-28 15:24:00,
2013-07-28 11:30:00,75.7,65.6,30.00,South,191,2.0,2.0,71,0.00,,,0.00,Wunderground v.1.15,2013-07-28 15:30:00,
2013-07-28 11:36:00,75.3,65.2,30.00,SSW,194,2.0,3.0,71,0.00,,,0.00,Wunderground v.1.15,2013-07-28 15:36:00,
2013-07-28 11:42:00,75.6,66.3,30.00,SW,222,2.0,2.0,73,0.00,,,0.00,Wunderground v.1.15,2013-07-28 15:42:00,
2013-07-28 11:48:00,75.3,65.6,30.00,SSW,201,2.0,3.0,72,0.00,,,0.00,Wunderground v.1.15,2013-07-28 15:48:00,
2013-07-28 11:54:00,74.9,65.7,30.00,East,83,3.0,3.0,73,0.00,,,0.00,Wunderground v.1.15,2013-07-28 15:54:00,
2013-07-28 11:59:00,75.4,67.3,30.00,SSW,197,3.0,3.0,76,0.00,,,0.00,Wunderground v.1.15,2013-07-28 15:59:00,
2013-07-28 12:06:00,75.3,66.4,30.00,WNW,301,4.0,6.0,74,0.00,,,0.00,Wunderground v.1.15,2013-07-28 16:06:00,
2013-07-28 12:12:00,75.8,66.5,30.01,SSW,197,4.0,8.0,73,0.00,,,0.00,Wunderground v.1.15,2013-07-28 16:12:00,
2013-07-28 12:18:00,76.1,66.8,30.01,SSE,152,4.0,8.0,73,0.00,,,0.00,Wunderground v.1.15,2013-07-28 16:18:00,
2013-07-28 12:23:00,76.4,65.9,30.01,SSW,194,5.0,9.0,70,0.00,,,0.00,Wunderground v.1.15,2013-07-28 16:23:00,
2013-07-28 12:30:00,76.6,66.5,30.01,South,184,5.0,5.0,71,0.00,,,0.00,Wunderground v.1.15,2013-07-28 16:30:00,
2013-07-28 12:36:00,76.9,66.4,30.01,SSW,200,5.0,8.0,70,0.00,,,0.00,Wunderground v.1.15,2013-07-28 16:36:00,
2013-07-28 12:44:00,77.2,67.1,30.00,SW,220,5.0,7.0,71,0.00,,,0.00,Wunderground v.1.15,2013-07-28 16:44:00,
2013-07-28 12:50:00,77.3,66.3,30.00,South,179,4.0,6.0,69,0.00,,,0.00,Wunderground v.1.15,2013-07-28 16:50:00,
2013-07-28 12:56:00,77.0,66.0,30.00,South,191,5.0,6.0,69,0.00,,,0.00,Wunderground v.1.15,2013-07-28 16:56:00,
2013-07-28 13:01:00,77.1,65.7,30.00,South,184,5.0,9.0,68,0.00,,,0.00,Wunderground v.1.15,2013-07-28 17:01:00,
2013-07-28 13:07:00,77.2,65.0,30.00,SSW,208,6.0,9.0,66,0.00,,,0.00,Wunderground v.1.15,2013-07-28 17:07:00,
2013-07-28 13:14:00,77.7,65.9,30.00,SE,141,6.0,7.0,67,0.00,,,0.00,Wunderground v.1.15,2013-07-28 17:14:00,
2013-07-28 13:20:00,77.6,65.8,30.00,South,190,5.0,6.0,67,0.00,,,0.00,Wunderground v.1.15,2013-07-28 17:20:00,
2013-07-28 13:26:00,78.0,65.3,30.00,South,182,6.0,9.0,65,0.00,,,0.00,Wunderground v.1.15,2013-07-28 17:26:00,
2013-07-28 13:32:00,78.4,66.1,30.00,SSW,200,7.0,7.0,66,0.00,,,0.00,Wunderground v.1.15,2013-07-28 17:32:00,
2013-07-28 13:38:00,78.2,65.0,30.00,South,174,6.0,7.0,64,0.00,,,0.00,Wunderground v.1.15,2013-07-28 17:38:00,
2013-07-28 13:44:00,78.2,64.1,29.99,SSE,150,6.0,8.0,62,0.00,,,0.00,Wunderground v.1.15,2013-07-28 17:44:00,
2013-07-28 13:49:00,78.9,64.8,30.00,South,180,7.0,9.0,62,0.00,,,0.00,Wunderground v.1.15,2013-07-28 17:49:00,
2013-07-28 13:56:00,78.7,64.1,29.99,South,179,8.0,9.0,61,0.00,,,0.00,Wunderground v.1.15,2013-07-28 17:56:00,
2013-07-28 14:02:00,78.9,63.8,29.99,SSW,203,7.0,9.0,60,0.00,,,0.00,Wunderground v.1.15,2013-07-28 18:02:00,
2013-07-28 14:08:00,79.2,66.0,29.99,SSW,197,6.0,9.0,64,0.00,,,0.00,Wunderground v.1.15,2013-07-28 18:08:00,
2013-07-28 14:13:00,79.3,65.6,29.99,WSW,247,4.0,5.0,63,0.00,,,0.00,Wunderground v.1.15,2013-07-28 18:13:00,
2013-07-28 14:19:00,78.8,64.2,29.99,SSW,203,6.0,6.0,61,0.00,,,0.00,Wunderground v.1.15,2013-07-28 18:19:00,
2013-07-28 14:25:00,78.7,65.0,29.99,SSW,204,6.0,7.0,63,0.00,,,0.00,Wunderground v.1.15,2013-07-28 18:25:00,
2013-07-28 14:31:00,78.3,64.2,29.99,SW,227,6.0,7.0,62,0.00,,,0.00,Wunderground v.1.15,2013-07-28 18:31:00,
2013-07-28 14:38:00,78.3,63.3,29.99,SSW,211,5.0,7.0,60,0.00,,,0.00,Wunderground v.1.15,2013-07-28 18:38:00,
2013-07-28 14:44:00,77.9,63.4,29.99,South,189,6.0,7.0,61,0.00,,,0.00,Wunderground v.1.15,2013-07-28 18:44:00,
2013-07-28 14:50:00,78.6,63.6,29.98,SW,214,7.0,7.0,60,0.00,,,0.00,Wunderground v.1.15,2013-07-28 18:50:00,
2013-07-28 14:55:00,79.0,64.9,29.98,SSW,213,6.0,8.0,62,0.00,,,0.00,Wunderground v.1.15,2013-07-28 18:55:00,
2013-07-28 15:02:00,79.2,64.6,29.98,South,188,4.0,9.0,61,0.00,,,0.00,Wunderground v.1.15,2013-07-28 19:02:00,
2013-07-28 15:10:00,79.4,64.3,29.98,SSW,212,7.0,7.0,60,0.00,,,0.00,Wunderground v.1.15,2013-07-28 19:10:00,
2013-07-28 15:16:00,79.4,63.8,29.98,SW,221,5.0,9.0,59,0.00,,,0.00,Wunderground v.1.15,2013-07-28 19:16:00,
2013-07-28 15:22:00,79.0,63.9,29.98,SSW,203,5.0,5.0,60,0.00,,,0.00,Wunderground v.1.15,2013-07-28 19:22:00,
2013-07-28 15:27:00,79.3,64.7,29.98,WSW,248,4.0,8.0,61,0.00,,,0.00,Wunderground v.1.15,2013-07-28 19:27:00,
2013-07-28 15:33:00,79.4,64.8,29.98,SW,219,5.0,12.0,61,0.00,,,0.00,Wunderground v.1.15,2013-07-28 19:33:00,
2013-07-28 15:40:00,79.7,64.6,29.98,SSW,210,5.0,5.0,60,0.00,,,0.00,Wunderground v.1.15,2013-07-28 19:40:00,
2013-07-28 15:46:00,79.7,65.1,29.98,SSW,200,3.0,5.0,61,0.00,,,0.00,Wunderground v.1.15,2013-07-28 19:46:00,
2013-07-28 15:51:00,79.9,64.8,29.98,SSW,207,4.0,7.0,60,0.00,,,0.00,Wunderground v.1.15,2013-07-28 19:51:00,
2013-07-28 15:57:00,79.4,63.3,29.98,SW,228,6.0,7.0,58,0.00,,,0.00,Wunderground v.1.15,2013-07-28 19:57:00,
2013-07-28 16:04:00,79.4,65.7,29.98,WSW,253,5.0,10.0,63,0.00,,,0.00,Wunderground v.1.15,2013-07-28 20:04:00,
2013-07-28 16:09:00,80.0,63.9,29.98,SSW,194,4.0,4.0,58,0.00,,,0.00,Wunderground v.1.15,2013-07-28 20:09:00,
2013-07-28 16:15:00,79.7,63.6,29.98,WNW,288,4.0,9.0,58,0.00,,,0.00,Wunderground v.1.15,2013-07-28 20:15:00,
2013-07-28 16:21:00,79.5,63.9,29.97,SW,220,5.0,6.0,59,0.00,,,0.00,Wunderground v.1.15,2013-07-28 20:21:00,
2013-07-28 16:28:00,79.6,64.0,29.97,SW,218,5.0,8.0,59,0.00,,,0.00,Wunderground v.1.15,2013-07-28 20:28:00,
2013-07-28 16:34:00,79.0,64.4,29.97,South,176,5.0,7.0,61,0.00,,,0.00,Wunderground v.1.15,2013-07-28 20:34:00,
2013-07-28 16:40:00,79.8,64.2,29.98,SW,229,4.0,7.0,59,0.00,,,0.00,Wunderground v.1.15,2013-07-28 20:40:00,
2013-07-28 16:48:00,79.8,63.2,29.97,SSW,204,5.0,8.0,57,0.00,,,0.00,Wunderground v.1.15,2013-07-28 20:48:00,
2013-07-28 16:54:00,79.3,63.2,29.98,South,191,4.0,9.0,58,0.00,,,0.00,Wunderground v.1.15,2013-07-28 20:54:00,
2013-07-28 17:00:00,78.8,63.7,29.97,SSW,207,5.0,5.0,60,0.00,,,0.00,Wunderground v.1.15,2013-07-28 21:00:00,
2013-07-28 17:06:00,79.0,63.0,29.98,WSW,239,4.0,7.0,58,0.00,,,0.00,Wunderground v.1.15,2013-07-28 21:06:00,
2013-07-28 17:12:00,79.7,63.6,29.98,SW,222,3.0,4.0,58,0.00,,,0.00,Wunderground v.1.15,2013-07-28 21:12:00,
2013-07-28 17:18:00,80.0,63.9,29.98,SW,232,5.0,6.0,58,0.00,,,0.00,Wunderground v.1.15,2013-07-28 21:18:00,
2013-07-28 17:24:00,80.1,63.5,29.98,SSW,193,4.0,5.0,57,0.00,,,0.00,Wunderground v.1.15,2013-07-28 21:24:00,
2013-07-28 17:30:00,79.9,63.3,29.98,SSE,153,4.0,4.0,57,0.00,,,0.00,Wunderground v.1.15,2013-07-28 21:30:00,
2013-07-28 17:36:00,80.1,63.0,29.98,SW,214,4.0,6.0,56,0.00,,,0.00,Wunderground v.1.15,2013-07-28 21:36:00,
2013-07-28 17:42:00,80.0,63.4,29.98,SSW,194,4.0,4.0,57,0.00,,,0.00,Wunderground v.1.15,2013-07-28 21:42:00,
2013-07-28 17:48:00,79.9,63.3,29.98,SW,219,5.0,6.0,57,0.00,,,0.00,Wunderground v.1.15,2013-07-28 21:48:00,
2013-07-28 17:54:00,79.9,63.8,29.98,South,185,4.0,7.0,58,0.00,,,0.00,Wunderground v.1.15,2013-07-28 21:54:00,
2013-07-28 18:00:00,79.8,63.2,29.97,South,187,5.0,5.0,57,0.00,,,0.00,Wunderground v.1.15,2013-07-28 22:00:00,
2013-07-28 18:06:00,79.8,63.2,29.98,South,175,4.0,7.0,57,0.00,,,0.00,Wunderground v.1.15,2013-07-28 22:06:00,
2013-07-28 18:12:00,79.7,63.6,29.98,South,184,5.0,5.0,58,0.00,,,0.00,Wunderground v.1.15,2013-07-28 22:12:00,
2013-07-28 18:18:00,79.5,63.9,29.97,South,188,4.0,5.0,59,0.00,,,0.00,Wunderground v.1.15,2013-07-28 22:18:00,
2013-07-28 18:24:00,79.5,63.9,29.97,South,188,3.0,5.0,59,0.00,,,0.00,Wunderground v.1.15,2013-07-28 22:24:00,
2013-07-28 18:30:00,79.3,64.7,29.97,South,170,3.0,3.0,61,0.00,,,0.00,Wunderground v.1.15,2013-07-28 22:30:00,
2013-07-28 18:36:00,79.4,62.3,29.97,SSW,208,3.0,5.0,56,0.00,,,0.00,Wunderground v.1.15,2013-07-28 22:36:00,
2013-07-28 18:42:00,78.7,62.2,29.98,SSW,205,4.0,5.0,57,0.00,,,0.00,Wunderground v.1.15,2013-07-28 22:42:00,
2013-07-28 18:48:00,78.2,62.7,29.98,South,183,4.0,5.0,59,0.00,,,0.00,Wunderground v.1.15,2013-07-28 22:48:00,
2013-07-28 18:54:00,78.1,63.1,29.98,South,188,3.0,4.0,60,0.00,,,0.00,Wunderground v.1.15,2013-07-28 22:54:00,
2013-07-28 19:00:00,78.0,63.5,29.98,South,180,2.0,3.0,61,0.00,,,0.00,Wunderground v.1.15,2013-07-28 23:00:00,
2013-07-28 19:06:00,78.2,64.1,29.98,South,190,3.0,4.0,62,0.00,,,0.00,Wunderground v.1.15,2013-07-28 23:06:00,
2013-07-28 19:12:00,78.7,63.6,29.98,SSW,195,4.0,4.0,60,0.00,,,0.00,Wunderground v.1.15,2013-07-28 23:12:00,
2013-07-28 19:18:00,79.2,64.1,29.98,SSW,198,3.0,4.0,60,0.00,,,0.00,Wunderground v.1.15,2013-07-28 23:18:00,
2013-07-28 19:24:00,79.0,63.0,29.99,SW,214,4.0,8.0,58,0.00,,,0.00,Wunderground v.1.15,2013-07-28 23:24:00,
2013-07-28 19:30:00,78.4,63.4,29.99,SW,219,4.0,4.0,60,0.00,,,0.00,Wunderground v.1.15,2013-07-28 23:30:00,
2013-07-28 19:36:00,77.8,62.8,29.99,SSW,211,3.0,5.0,60,0.00,,,0.00,Wunderground v.1.15,2013-07-28 23:36:00,
2013-07-28 19:42:00,77.2,63.2,29.99,SW,231,3.0,4.0,62,0.00,,,0.00,Wunderground v.1.15,2013-07-28 23:42:00,
2013-07-28 19:48:00,77.3,62.8,30.00,SW,214,2.0,4.0,61,0.00,,,0.00,Wunderground v.1.15,2013-07-28 23:48:00,
2013-07-28 19:54:00,77.6,63.1,30.00,SW,229,2.0,2.0,61,0.00,,,0.00,Wunderground v.1.15,2013-07-28 23:54:00,
2013-07-28 20:00:00,77.9,63.4,30.00,SSW,207,2.0,2.0,61,0.00,,,0.00,Wunderground v.1.15,2013-07-29 00:00:00,
2013-07-28 20:08:00,78.0,63.0,30.00,WSW,245,1.0,2.0,60,0.00,,,0.00,Wunderground v.1.15,2013-07-29 00:08:00,
2013-07-28 20:14:00,77.4,62.4,30.00,SW,222,1.0,3.0,60,0.00,,,0.00,Wunderground v.1.15,2013-07-29 00:14:00,
2013-07-28 20:20:00,76.8,62.3,30.00,SW,214,2.0,3.0,61,0.00,,,0.00,Wunderground v.1.15,2013-07-29 00:20:00,
2013-07-28 20:26:00,76.1,61.7,30.00,SW,224,1.0,3.0,61,0.00,,,0.00,Wunderground v.1.15,2013-07-29 00:26:00,
2013-07-28 20:32:00,75.2,60.4,30.00,WSW,243,2.0,4.0,60,0.00,,,0.00,Wunderground v.1.15,2013-07-29 00:32:00,
2013-07-28 20:38:00,74.5,59.7,30.00,SW,232,3.0,6.0,60,0.00,,,0.00,Wunderground v.1.15,2013-07-29 00:38:00,
2013-07-28 20:44:00,73.9,59.6,30.00,SW,219,4.0,4.0,61,0.00,,,0.00,Wunderground v.1.15,2013-07-29 00:44:00,
2013-07-28 20:50:00,73.5,59.7,30.00,SW,231,3.0,3.0,62,0.00,,,0.00,Wunderground v.1.15,2013-07-29 00:50:00,
2013-07-28 20:56:00,72.8,59.9,30.01,SSW,210,2.0,3.0,64,0.00,,,0.00,Wunderground v.1.15,2013-07-29 00:56:00,
2013-07-28 21:02:00,72.0,60.0,30.01,SW,225,1.0,1.0,66,0.00,,,0.00,Wunderground v.1.15,2013-07-29 01:02:00,
2013-07-28 21:08:00,71.1,59.6,30.01,SW,215,1.0,1.0,67,0.00,,,0.00,Wunderground v.1.15,2013-07-29 01:08:00,
2013-07-28 21:14:00,70.6,59.5,30.01,SW,218,2.0,3.0,68,0.00,,,0.00,Wunderground v.1.15,2013-07-29 01:14:00,
2013-07-28 21:22:00,70.3,59.2,30.02,SW,222,2.0,2.0,68,0.00,,,0.00,Wunderground v.1.15,2013-07-29 01:22:00,
2013-07-28 21:30:00,69.6,59.8,30.02,SW,214,0.0,1.0,71,0.00,,,0.00,Wunderground v.1.15,2013-07-29 01:30:00,
2013-07-28 21:36:00,69.0,59.6,30.02,SW,226,0.0,2.0,72,0.00,,,0.00,Wunderground v.1.15,2013-07-29 01:36:00,
2013-07-28 21:46:00,68.5,58.7,30.03,SW,222,1.0,1.0,71,0.00,,,0.00,Wunderground v.1.15,2013-07-29 01:46:00,
2013-07-28 21:52:00,68.3,58.9,30.03,SW,228,0.0,1.0,72,0.00,,,0.00,Wunderground v.1.15,2013-07-29 01:52:00,
2013-07-28 21:58:00,68.1,59.5,30.04,SW,225,0.0,1.0,74,0.00,,,0.00,Wunderground v.1.15,2013-07-29 01:58:00,
2013-07-28 22:04:00,68.2,59.2,30.05,SW,226,0.0,1.0,73,0.00,,,0.00,Wunderground v.1.15,2013-07-29 02:04:00,
2013-07-28 22:10:00,67.8,58.4,30.05,SW,221,0.0,1.0,72,0.00,,,0.00,Wunderground v.1.15,2013-07-29 02:10:00,
2013-07-28 22:16:00,67.6,59.0,30.05,SW,221,0.0,1.0,74,0.00,,,0.00,Wunderground v.1.15,2013-07-29 02:16:00,
2013-07-28 22:24:00,67.2,59.4,30.05,SW,221,0.0,1.0,76,0.00,,,0.00,Wunderground v.1.15,2013-07-29 02:24:00,
2013-07-28 22:30:00,66.9,59.1,30.06,SW,221,0.0,1.0,76,0.00,,,0.00,Wunderground v.1.15,2013-07-29 02:30:00,
2013-07-28 22:38:00,67.2,59.0,30.06,WSW,249,0.0,1.0,75,0.00,,,0.00,Wunderground v.1.15,2013-07-29 02:38:00,
2013-07-28 22:44:00,67.8,58.8,30.06,West,271,1.0,2.0,73,0.00,,,0.00,Wunderground v.1.15,2013-07-29 02:44:00,
2013-07-28 22:52:00,68.2,58.4,30.06,WNW,297,2.0,2.0,71,0.00,,,0.00,Wunderground v.1.15,2013-07-29 02:52:00,
2013-07-28 22:58:00,68.5,58.7,30.06,WSW,240,2.0,4.0,71,0.00,,,0.00,Wunderground v.1.15,2013-07-29 02:58:00,
2013-07-28 23:06:00,68.8,57.8,30.06,NNW,335,3.0,5.0,68,0.00,,,0.00,Wunderground v.1.15,2013-07-29 03:06:00,
2013-07-28 23:12:00,68.9,57.5,30.06,WSW,257,4.0,4.0,67,0.00,,,0.00,Wunderground v.1.15,2013-07-29 03:12:00,
2013-07-28 23:18:00,69.0,57.6,30.06,NW,305,3.0,4.0,67,0.00,,,0.00,Wunderground v.1.15,2013-07-29 03:18:00,
2013-07-28 23:24:00,68.9,57.1,30.07,WNW,285,3.0,3.0,66,0.00,,,0.00,Wunderground v.1.15,2013-07-29 03:24:00,
2013-07-28 23:30:00,69.0,56.3,30.07,WNW,292,3.0,3.0,64,0.00,,,0.00,Wunderground v.1.15,2013-07-29 03:30:00,
2013-07-28 23:36:00,69.0,56.3,30.07,WNW,283,3.0,3.0,64,0.00,,,0.00,Wunderground v.1.15,2013-07-29 03:36:00,
2013-07-28 23:42:00,69.0,56.3,30.07,WNW,302,2.0,3.0,64,0.00,,,0.00,Wunderground v.1.15,2013-07-29 03:42:00,
2013-07-28 23:48:00,69.1,55.1,30.07,WNW,291,2.0,3.0,61,0.00,,,0.00,Wunderground v.1.15,2013-07-29 03:48:00,
2013-07-28 23:54:00,68.9,55.3,30.07,WSW,245,2.0,3.0,62,0.00,,,0.00,Wunderground v.1.15,2013-07-29 03:54:00,